Time;durP1;ratioP1;P1;durP2;ratioP2;P2;SDS_P1;SDS_P2;PMS_P1;PMS_P2;Temp;Humidity;BMP_temperature;BMP_pressure;BME280_temperature;BME280_humidity;BME280_pressure;Samples;Min_cycle;Max_cycle;Signal;HPM_P1;HPM_P2
2023/01/30 00:01:55;;;;;;;;;1.00;1.00;;;;;19.78;57.15;100327.61;111241;1271;18359;-78
2023/01/30 00:04:23;;;;;;;;;1.00;1.00;;;;;19.78;57.22;100316.40;111351;1271;18647;-77
2023/01/30 00:06:50;;;;;;;;;3.00;3.00;;;;;19.77;57.17;100311.08;111295;1256;20680;-78
2023/01/30 00:09:17;;;;;;;;;2.33;1.67;;;;;19.77;57.26;100305.09;111383;1263;18755;-79
2023/01/30 00:11:45;;;;;;;;;2.00;2.00;;;;;19.76;57.15;100291.61;111358;1256;18647;-78
2023/01/30 00:14:13;;;;;;;;;3.00;3.00;;;;;19.77;57.12;100279.35;111363;1271;20696;-78
2023/01/30 00:16:41;;;;;;;;;3.00;3.00;;;;;19.78;57.30;100275.77;111305;1271;19491;-78
2023/01/30 00:19:09;;;;;;;;;1.00;1.00;;;;;19.77;57.14;100269.86;111418;1271;20080;-78
2023/01/30 00:21:36;;;;;;;;;1.00;1.00;;;;;19.77;57.19;100269.73;111179;1256;19369;-78
2023/01/30 00:24:04;;;;;;;;;3.00;1.00;;;;;19.77;57.19;100263.79;111438;1263;18864;-78
2023/01/30 00:26:31;;;;;;;;;3.00;3.00;;;;;19.76;56.93;100261.65;111179;1271;20311;-78
2023/01/30 00:28:59;;;;;;;;;1.00;1.00;;;;;19.77;56.91;100257.73;111459;1271;19346;-78
2023/01/30 00:31:26;;;;;;;;;1.00;1.00;;;;;19.77;57.12;100256.35;111010;1267;18876;-78
2023/01/30 00:33:53;;;;;;;;;3.00;3.00;;;;;19.76;57.06;100249.56;111407;1271;18646;-78
2023/01/30 00:36:21;;;;;;;;;3.00;3.00;;;;;19.77;56.89;100244.96;111201;1271;19368;-78
2023/01/30 00:38:48;;;;;;;;;3.00;3.00;;;;;19.77;56.97;100241.33;111363;1263;18410;-78
2023/01/30 00:41:17;;;;;;;;;1.00;1.00;;;;;19.76;56.97;100240.69;111257;1271;18870;-78
2023/01/30 00:49:15;;;;;;;;;3.50;3.00;;;;;19.75;56.81;100229.30;111192;1271;21105;-78
2023/01/30 00:51:42;;;;;;;;;1.00;1.00;;;;;19.76;56.77;100223.88;111315;1255;20779;-78
2023/01/30 00:54:09;;;;;;;;;3.00;3.00;;;;;19.75;56.78;100215.77;111351;1271;20035;-78
2023/01/30 00:56:37;;;;;;;;;3.00;1.00;;;;;19.74;56.88;100216.02;111251;1255;18971;-79
2023/01/30 00:59:04;;;;;;;;;4.00;3.00;;;;;19.74;56.88;100208.44;111417;1270;19535;-78
2023/01/30 01:01:32;;;;;;;;;1.00;1.00;;;;;19.73;56.67;100200.69;111123;1270;19540;-78
2023/01/30 01:03:59;;;;;;;;;1.00;1.00;;;;;19.74;56.76;100198.13;111450;1270;18577;-78
2023/01/30 01:06:27;;;;;;;;;3.00;3.00;;;;;19.75;56.68;100185.33;111128;1270;19203;-78
2023/01/30 01:08:54;;;;;;;;;3.00;3.00;;;;;19.73;56.68;100188.20;111459;1255;20645;-78
2023/01/30 01:11:24;;;;;;;;;2.00;2.00;;;;;19.73;56.72;100187.64;111126;1270;18605;-78
2023/01/30 01:13:51;;;;;;;;;3.00;3.00;;;;;19.75;56.62;100188.59;111194;1257;20924;-78
2023/01/30 01:16:19;;;;;;;;;3.00;3.00;;;;;19.74;56.82;100181.61;111597;1256;19809;-78
2023/01/30 01:18:46;;;;;;;;;3.00;3.00;;;;;19.72;56.76;100177.88;111232;1264;18599;-78
2023/01/30 01:21:13;;;;;;;;;3.00;1.00;;;;;19.74;56.68;100175.64;111533;1270;20645;-78
2023/01/30 01:23:41;;;;;;;;;2.33;2.33;;;;;19.73;56.50;100165.02;111314;1270;18412;-78
2023/01/30 01:26:08;;;;;;;;;3.00;3.00;;;;;19.72;56.63;100159.34;111453;1255;20200;-78
2023/01/30 01:28:36;;;;;;;;;1.00;1.00;;;;;19.71;56.81;100156.06;111230;1270;20871;-78
2023/01/30 01:31:03;;;;;;;;;3.00;3.00;;;;;19.71;56.68;100145.83;111428;1270;18173;-78
2023/01/30 01:33:31;;;;;;;;;3.00;3.00;;;;;19.71;56.76;100135.41;111260;1262;19846;-78
2023/01/30 01:35:58;;;;;;;;;3.00;3.00;;;;;19.73;56.60;100131.90;111376;1263;19350;-78
2023/01/30 01:38:25;;;;;;;;;3.00;3.00;;;;;19.73;56.47;100131.30;111283;1255;19849;-78
2023/01/30 01:41:02;;;;;;;;;3.00;3.00;;;;;19.72;56.67;100120.52;111411;1270;18713;-78
2023/01/30 01:43:29;;;;;;;;;1.00;1.00;;;;;19.70;56.57;100114.47;111512;1256;19307;-78
2023/01/30 01:45:57;;;;;;;;;3.00;3.00;;;;;19.70;56.63;100117.39;111120;1270;18513;-79
2023/01/30 01:48:24;;;;;;;;;2.00;2.00;;;;;19.68;56.54;100107.61;111470;1270;18651;-78
2023/01/30 01:50:52;;;;;;;;;1.00;1.00;;;;;19.70;56.57;100106.83;111070;1270;19566;-78
2023/01/30 01:53:19;;;;;;;;;3.00;3.00;;;;;19.71;56.33;100097.84;111524;1262;18180;-79
2023/01/30 01:55:46;;;;;;;;;3.00;3.00;;;;;19.70;56.54;100095.75;111103;1270;19869;-78
2023/01/30 01:58:14;;;;;;;;;3.00;3.00;;;;;19.71;56.59;100083.73;111490;1270;20704;-78
2023/01/30 02:00:41;;;;;;;;;1.00;1.00;;;;;19.69;56.35;100068.73;111222;1270;19951;-79
2023/01/30 02:03:09;;;;;;;;;3.00;3.00;;;;;19.70;56.32;100058.81;111502;1262;18642;-78
2023/01/30 02:05:36;;;;;;;;;1.00;1.00;;;;;19.71;56.30;100048.02;111187;1270;19566;-78
2023/01/30 02:08:04;;;;;;;;;3.00;3.00;;;;;19.70;56.27;100043.58;111527;1270;20770;-78
2023/01/30 02:10:31;;;;;;;;;1.00;1.00;;;;;19.69;56.29;100032.27;111165;1256;22802;-79
2023/01/30 02:12:59;;;;;;;;;1.00;1.00;;;;;19.69;56.28;100024.53;111522;1270;19356;-79
2023/01/30 02:15:26;;;;;;;;;3.00;3.00;;;;;19.69;56.21;100018.00;111168;1254;18430;-79
2023/01/30 02:17:54;;;;;;;;;1.00;1.00;;;;;19.69;56.29;100012.69;111470;1263;19069;-77
2023/01/30 02:20:21;;;;;;;;;3.00;3.00;;;;;19.68;56.42;99995.41;111179;1255;19572;-78
2023/01/30 02:22:49;;;;;;;;;3.00;3.00;;;;;19.67;56.36;99982.88;111477;1270;18417;-78
2023/01/30 02:25:16;;;;;;;;;1.00;1.00;;;;;19.67;56.20;99966.53;111269;1256;19988;-78
2023/01/30 02:27:43;;;;;;;;;3.00;3.00;;;;;19.68;56.37;99962.81;111334;1270;20818;-78
2023/01/30 02:30:11;;;;;;;;;3.00;3.00;;;;;19.68;56.24;99953.64;111202;1270;19614;-78
2023/01/30 02:32:38;;;;;;;;;3.00;2.00;;;;;19.68;56.23;99949.80;111404;1270;18649;-78
2023/01/30 02:35:06;;;;;;;;;1.00;1.00;;;;;19.67;56.24;99941.55;111315;1270;20608;-78
2023/01/30 02:37:33;;;;;;;;;3.00;3.00;;;;;19.67;56.02;99930.71;111437;1255;18176;-79
2023/01/30 02:40:01;;;;;;;;;3.00;3.00;;;;;19.67;56.24;99923.27;111288;1270;18640;-78
2023/01/30 02:42:28;;;;;;;;;1.00;1.00;;;;;19.66;56.29;99934.39;111383;1270;20585;-78
2023/01/30 02:44:56;;;;;;;;;1.00;1.00;;;;;19.66;56.12;99928.83;111223;1270;18762;-78
2023/01/30 02:47:23;;;;;;;;;3.00;3.00;;;;;19.67;56.18;99921.60;111393;1270;20005;-78
2023/01/30 02:49:50;;;;;;;;;3.00;3.00;;;;;19.67;56.00;99904.66;111291;1270;19366;-78
2023/01/30 02:52:18;;;;;;;;;3.00;3.00;;;;;19.66;56.25;99907.20;111467;1270;18812;-78
2023/01/30 02:54:46;;;;;;;;;3.00;3.00;;;;;19.67;56.08;99912.19;111042;1270;18822;-78
2023/01/30 02:57:13;;;;;;;;;3.00;3.00;;;;;19.66;56.06;99907.77;111458;1270;19381;-79
2023/01/30 02:59:40;;;;;;;;;1.00;1.00;;;;;19.66;55.94;99904.11;111340;1270;18549;-78
2023/01/30 03:02:08;;;;;;;;;3.00;3.00;;;;;19.67;56.13;99896.84;111421;1270;18580;-78
2023/01/30 03:04:35;;;;;;;;;3.00;1.00;;;;;19.66;55.96;99899.64;111302;1270;20670;-78
2023/01/30 03:07:03;;;;;;;;;1.00;1.00;;;;;19.66;56.11;99892.52;111451;1270;19464;-79
2023/01/30 03:09:30;;;;;;;;;1.00;1.00;;;;;19.65;56.03;99888.13;111326;1270;18926;-79
2023/01/30 03:11:58;;;;;;;;;1.00;1.00;;;;;19.66;55.89;99875.58;111431;1256;20688;-78
2023/01/30 03:14:25;;;;;;;;;4.00;3.00;;;;;19.65;56.10;99858.64;111385;1270;18145;-76
2023/01/30 03:16:52;;;;;;;;;2.00;2.00;;;;;19.66;55.90;99850.41;111474;1270;18626;-77
2023/01/30 03:19:20;;;;;;;;;3.00;3.00;;;;;19.64;55.91;99841.73;111376;1270;20667;-78
2023/01/30 03:21:47;;;;;;;;;3.00;3.00;;;;;19.66;55.82;99838.88;111508;1270;18903;-78
2023/01/30 03:24:15;;;;;;;;;1.00;1.00;;;;;19.66;55.90;99832.59;111340;1270;18587;-77
2023/01/30 03:26:42;;;;;;;;;2.33;2.33;;;;;19.65;55.92;99843.00;111470;1262;20820;-78
2023/01/30 03:29:10;;;;;;;;;1.00;1.00;;;;;19.66;55.72;99840.83;111401;1269;18147;-77
2023/01/30 03:31:37;;;;;;;;;1.00;1.00;;;;;19.64;55.93;99837.17;111493;1266;18601;-77
2023/01/30 03:34:05;;;;;;;;;1.00;1.00;;;;;19.65;55.86;99845.84;111406;1263;20570;-77
2023/01/30 03:36:32;;;;;;;;;3.00;3.00;;;;;19.64;55.93;99851.86;111368;1256;18619;-78
2023/01/30 03:38:59;;;;;;;;;1.00;1.00;;;;;19.64;55.77;99848.67;111409;1270;18826;-78
2023/01/30 03:41:27;;;;;;;;;3.00;3.00;;;;;19.65;55.57;99842.33;111274;1255;19520;-77
2023/01/30 03:43:55;;;;;;;;;1.00;1.00;;;;;19.66;55.79;99833.69;111422;1262;20004;-78
2023/01/30 03:46:22;;;;;;;;;1.00;1.00;;;;;19.64;55.72;99821.21;111340;1255;18849;-78
2023/01/30 03:48:49;;;;;;;;;4.00;3.00;;;;;19.63;55.64;99822.08;111472;1262;19363;-78
2023/01/30 03:51:17;;;;;;;;;3.00;3.00;;;;;19.65;55.50;99824.10;111319;1255;18230;-79
2023/01/30 03:53:45;;;;;;;;;1.00;1.00;;;;;19.64;55.65;99821.11;111412;1270;18622;-77
2023/01/30 03:56:12;;;;;;;;;3.00;3.00;;;;;19.65;55.71;99822.41;111467;1270;19559;-78
2023/01/30 03:58:40;;;;;;;;;1.00;1.00;;;;;19.64;55.68;99815.10;111346;1270;20693;-77
2023/01/30 04:01:07;;;;;;;;;3.00;3.00;;;;;19.63;55.58;99813.08;111418;1271;18768;-78
2023/01/30 04:03:35;;;;;;;;;1.00;1.00;;;;;19.64;55.67;99811.08;111303;1271;19695;-78
2023/01/30 04:06:02;;;;;;;;;3.00;2.00;;;;;19.64;55.65;99794.43;111444;1271;19496;-78
2023/01/30 04:08:30;;;;;;;;;3.00;3.00;;;;;19.63;55.56;99784.73;111275;1271;20442;-77
2023/01/30 04:10:57;;;;;;;;;1.00;1.00;;;;;19.62;55.57;99783.99;111426;1271;20712;-77
2023/01/30 04:13:25;;;;;;;;;1.00;1.00;;;;;19.62;55.72;99783.65;111322;1271;18739;-77
2023/01/30 04:15:52;;;;;;;;;3.00;2.00;;;;;19.62;55.63;99779.43;111394;1263;19979;-78
2023/01/30 04:18:20;;;;;;;;;1.00;1.00;;;;;19.62;55.51;99766.21;111343;1255;19362;-78
2023/01/30 04:20:48;;;;;;;;;3.00;3.00;;;;;19.62;55.71;99759.70;111397;1271;18384;-77
2023/01/30 04:23:15;;;;;;;;;1.00;1.00;;;;;19.61;55.54;99757.06;111303;1255;18644;-78
2023/01/30 04:25:42;;;;;;;;;1.00;1.00;;;;;19.59;55.69;99754.98;111413;1263;19734;-77
2023/01/30 04:28:10;;;;;;;;;1.00;1.00;;;;;19.61;55.40;99747.17;111292;1271;19529;-77
2023/01/30 04:30:37;;;;;;;;;3.00;3.00;;;;;19.62;55.62;99740.83;111437;1270;18957;-77
2023/01/30 04:33:05;;;;;;;;;1.00;1.00;;;;;19.61;55.50;99724.14;111291;1271;21801;-79
2023/01/30 04:35:32;;;;;;;;;3.00;1.00;;;;;19.60;55.69;99712.84;111411;1271;18181;-77
2023/01/30 04:38:00;;;;;;;;;3.00;3.00;;;;;19.60;55.48;99714.17;111359;1256;18820;-78
2023/01/30 04:40:27;;;;;;;;;3.00;3.00;;;;;19.60;55.33;99710.84;111440;1271;19396;-78
2023/01/30 04:42:55;;;;;;;;;1.00;1.00;;;;;19.60;55.23;99701.10;111320;1271;19138;-77
2023/01/30 04:45:22;;;;;;;;;1.00;1.00;;;;;19.60;55.49;99686.41;111472;1271;18731;-77
2023/01/30 04:47:50;;;;;;;;;3.00;3.00;;;;;19.60;55.30;99681.73;111321;1263;20861;-77
2023/01/30 04:50:17;;;;;;;;;1.00;1.00;;;;;19.59;55.51;99673.62;111445;1258;18635;-77
2023/01/30 04:52:45;;;;;;;;;1.00;1.00;;;;;19.61;55.37;99670.53;111345;1271;20248;-78
2023/01/30 04:55:12;;;;;;;;;1.00;1.00;;;;;19.60;55.40;99667.90;111368;1255;21253;-78
2023/01/30 04:57:40;;;;;;;;;3.00;3.00;;;;;19.61;55.24;99665.84;111395;1271;18193;-78
2023/01/30 05:00:07;;;;;;;;;1.00;1.00;;;;;19.60;55.43;99659.90;111201;1256;18844;-77
2023/01/30 05:02:35;;;;;;;;;3.00;3.00;;;;;19.60;55.42;99662.08;111339;1263;20708;-77
2023/01/30 05:05:02;;;;;;;;;1.00;1.00;;;;;19.59;55.18;99654.25;111188;1271;19841;-77
2023/01/30 05:07:31;;;;;;;;;1.00;1.00;;;;;19.58;55.47;99649.33;111228;1271;20164;-77
2023/01/30 05:09:58;;;;;;;;;1.00;1.00;;;;;19.59;55.36;99636.70;111340;1271;20943;-77
2023/01/30 05:12:25;;;;;;;;;1.00;1.00;;;;;19.59;55.41;99635.11;111255;1271;18369;-77
2023/01/30 05:14:53;;;;;;;;;3.00;3.00;;;;;19.59;55.18;99632.59;111355;1271;18708;-77
2023/01/30 05:17:20;;;;;;;;;1.00;1.00;;;;;19.59;55.41;99640.67;111300;1271;19394;-77
2023/01/30 05:19:48;;;;;;;;;1.00;1.00;;;;;19.59;55.44;99636.14;111377;1271;18164;-77
2023/01/30 05:22:15;;;;;;;;;1.00;1.00;;;;;19.59;55.37;99642.84;111255;1271;18922;-77
2023/01/30 05:24:43;;;;;;;;;1.00;1.00;;;;;19.59;55.29;99630.30;111396;1271;21773;-78
2023/01/30 05:27:10;;;;;;;;;1.00;1.00;;;;;19.60;55.14;99625.91;111243;1271;19670;-78
2023/01/30 05:29:38;;;;;;;;;1.00;1.00;;;;;19.59;55.27;99611.76;111388;1271;18619;-77
2023/01/30 05:32:05;;;;;;;;;1.00;1.00;;;;;19.58;55.16;99592.02;111288;1263;19473;-78
2023/01/30 05:34:33;;;;;;;;;1.00;1.00;;;;;19.58;55.33;99591.89;111348;1271;19472;-77
2023/01/30 05:37:00;;;;;;;;;2.00;2.00;;;;;19.58;55.13;99578.70;111314;1271;18587;-77
2023/01/30 05:39:27;;;;;;;;;1.00;1.00;;;;;19.57;55.02;99579.35;111407;1271;19720;-77
2023/01/30 05:41:55;;;;;;;;;1.00;1.00;;;;;19.58;55.13;99570.20;111281;1255;20532;-77
2023/01/30 05:44:22;;;;;;;;;1.00;1.00;;;;;19.57;55.14;99577.66;111472;1263;18941;-77
2023/01/30 05:46:50;;;;;;;;;3.00;3.00;;;;;19.56;55.19;99582.89;111327;1271;19775;-78
2023/01/30 05:49:17;;;;;;;;;4.00;3.00;;;;;19.57;55.29;99573.88;111393;1271;18248;-77
2023/01/30 05:51:45;;;;;;;;;1.00;1.00;;;;;19.57;55.11;99572.94;111313;1271;18951;-77
2023/01/30 05:54:12;;;;;;;;;1.00;1.00;;;;;19.56;55.22;99569.77;111495;1263;19561;-78
2023/01/30 05:56:40;;;;;;;;;1.00;1.00;;;;;19.57;55.13;99563.64;111345;1271;18122;-78
2023/01/30 05:59:07;;;;;;;;;2.00;1.00;;;;;19.55;55.15;99557.42;111351;1257;19011;-77
2023/01/30 06:01:35;;;;;;;;;1.00;1.00;;;;;19.56;55.22;99555.73;111414;1270;19237;-77
2023/01/30 06:04:02;;;;;;;;;3.00;3.00;;;;;19.55;55.23;99548.56;111354;1255;18762;-77
2023/01/30 06:06:30;;;;;;;;;1.00;1.00;;;;;19.55;55.09;99546.51;111353;1270;18616;-77
2023/01/30 06:08:57;;;;;;;;;1.00;1.00;;;;;19.56;54.98;99541.55;111533;1270;21091;-78
2023/01/30 06:11:25;;;;;;;;;1.00;1.00;;;;;19.56;55.23;99541.76;111370;1256;18503;-77
2023/01/30 06:13:52;;;;;;;;;1.67;1.67;;;;;19.56;54.97;99543.36;111502;1270;18610;-77
2023/01/30 06:16:20;;;;;;;;;1.00;1.00;;;;;19.55;55.15;99538.90;111384;1270;19313;-77
2023/01/30 06:18:47;;;;;;;;;1.00;1.00;;;;;19.55;55.16;99540.81;111375;1270;18536;-78
2023/01/30 06:21:14;;;;;;;;;1.00;1.00;;;;;19.55;54.95;99545.67;111456;1270;18614;-78
2023/01/30 06:23:42;;;;;;;;;1.00;1.00;;;;;19.54;55.08;99539.61;111275;1263;20524;-77
2023/01/30 06:26:09;;;;;;;;;1.00;1.00;;;;;19.54;54.78;99540.40;111458;1270;19643;-77
2023/01/30 06:28:37;;;;;;;;;1.00;1.00;;;;;19.54;54.97;99542.08;111272;1270;19794;-77
2023/01/30 06:31:04;;;;;;;;;1.00;1.00;;;;;19.53;55.00;99537.77;111437;1263;19354;-77
2023/01/30 06:33:32;;;;;;;;;1.00;1.00;;;;;19.54;54.75;99539.27;111135;1270;18204;-77
2023/01/30 06:35:59;;;;;;;;;3.00;3.00;;;;;19.54;55.04;99538.86;111473;1270;18904;-77
2023/01/30 06:38:27;;;;;;;;;1.00;1.00;;;;;19.55;54.88;99540.36;111087;1270;19671;-77
2023/01/30 06:40:54;;;;;;;;;2.00;2.00;;;;;19.55;54.70;99529.62;111454;1256;18773;-80
2023/01/30 06:43:22;;;;;;;;;1.00;1.00;;;;;19.55;54.94;99519.66;111305;1270;20325;-78
2023/01/30 06:45:49;;;;;;;;;3.00;3.00;;;;;19.54;54.95;99517.91;111339;1270;21994;-77
2023/01/30 06:48:17;;;;;;;;;1.00;1.00;;;;;19.53;55.01;99519.66;111159;1270;19621;-77
2023/01/30 06:50:44;;;;;;;;;1.00;1.00;;;;;19.53;54.84;99513.60;111372;1269;18820;-77
2023/01/30 06:53:11;;;;;;;;;1.00;1.00;;;;;19.53;54.95;99511.05;111152;1270;19400;-78
2023/01/30 06:55:39;;;;;;;;;2.33;2.33;;;;;19.53;54.97;99499.89;111342;1270;19482;-77
2023/01/30 06:58:06;;;;;;;;;1.00;1.00;;;;;19.54;54.86;99497.30;111258;1270;18855;-77
2023/01/30 07:00:34;;;;;;;;;3.00;1.00;;;;;19.53;54.70;99495.83;111335;1270;21843;-77
2023/01/30 07:03:01;;;;;;;;;1.00;1.00;;;;;19.53;54.88;99501.02;111187;1263;18703;-77
2023/01/30 07:05:29;;;;;;;;;3.00;3.00;;;;;19.53;54.78;99489.70;111368;1270;18686;-77
2023/01/30 07:07:56;;;;;;;;;1.00;1.00;;;;;19.54;54.81;99492.74;111150;1270;19373;-77
2023/01/30 07:10:25;;;;;;;;;1.00;1.00;;;;;19.54;54.75;99487.64;111333;1270;19520;-76
2023/01/30 07:12:53;;;;;;;;;1.00;1.00;;;;;19.55;54.79;99477.40;111309;1270;20180;-77
2023/01/30 07:15:20;;;;;;;;;3.00;1.00;;;;;19.56;54.78;99470.89;111306;1255;20641;-76
2023/01/30 07:17:48;;;;;;;;;1.00;1.00;;;;;19.58;54.92;99466.65;111501;1270;19571;-78
2023/01/30 07:20:15;;;;;;;;;3.00;1.00;;;;;19.61;54.73;99461.41;111338;1270;18844;-75
2023/01/30 07:22:43;;;;;;;;;1.00;1.00;;;;;19.61;55.05;99459.36;111441;1270;19523;-76
2023/01/30 07:25:10;;;;;;;;;3.00;3.00;;;;;19.63;54.78;99460.89;111321;1255;18174;-75
2023/01/30 07:27:40;;;;;;;;;6.00;4.00;;;;;19.64;54.60;99457.38;111498;1255;20158;-75
2023/01/30 07:30:07;;;;;;;;;3.00;3.00;;;;;19.66;54.61;99453.33;111285;1270;19705;-75
2023/01/30 07:32:34;;;;;;;;;3.00;3.00;;;;;19.68;54.79;99452.30;111420;1270;21111;-76
2023/01/30 07:35:02;;;;;;;;;3.00;3.00;;;;;19.73;54.97;99445.34;111225;1255;18917;-76
2023/01/30 07:37:29;;;;;;;;;3.00;3.00;;;;;19.72;55.37;99444.50;111391;1270;21410;-75
2023/01/30 07:39:57;;;;;;;;;3.00;3.00;;;;;19.71;55.20;99430.78;111056;1270;19464;-77
2023/01/30 07:42:24;;;;;;;;;3.00;3.00;;;;;19.68;55.39;99420.98;111461;1270;19838;-75
2023/01/30 07:44:52;;;;;;;;;3.00;3.00;;;;;19.67;55.66;99418.80;110837;1270;180383;-74
2023/01/30 07:47:19;;;;;;;;;2.00;2.00;;;;;19.67;55.66;99417.86;111456;1270;18469;-75
2023/01/30 07:49:47;;;;;;;;;1.00;1.00;;;;;19.70;55.90;99420.41;111262;1270;18730;-76
2023/01/30 07:52:14;;;;;;;;;4.00;4.00;;;;;19.69;55.95;99412.52;111499;1255;20672;-75
2023/01/30 07:54:42;;;;;;;;;3.00;3.00;;;;;19.69;56.38;99408.15;111133;1270;20882;-74
2023/01/30 07:57:09;;;;;;;;;1.00;1.00;;;;;19.67;56.14;99406.66;111452;1266;18943;-76
2023/01/30 07:59:37;;;;;;;;;3.00;3.00;;;;;19.68;56.10;99405.63;111350;1270;19439;-74
2023/01/30 08:02:04;;;;;;;;;3.00;3.00;;;;;19.69;55.93;99402.20;111414;1270;18439;-74
2023/01/30 08:04:32;;;;;;;;;1.00;1.00;;;;;19.68;56.21;99409.88;111326;1263;19996;-79
2023/01/30 08:07:00;;;;;;;;;4.00;4.00;;;;;19.68;56.26;99399.69;111414;1270;19385;-76
2023/01/30 08:09:27;;;;;;;;;3.00;3.00;;;;;19.69;56.16;99397.77;111373;1270;18966;-75
2023/01/30 08:11:55;;;;;;;;;4.00;3.00;;;;;19.71;56.22;99401.67;111407;1270;18613;-75
2023/01/30 08:14:22;;;;;;;;;4.00;4.00;;;;;19.72;56.25;99397.98;111301;1270;19368;-75
2023/01/30 08:16:51;;;;;;;;;3.50;3.50;;;;;19.67;56.72;99395.04;111425;1270;19469;-75
2023/01/30 08:19:18;;;;;;;;;3.00;3.00;;;;;19.64;56.60;99391.91;111461;1255;18936;-76
2023/01/30 08:21:46;;;;;;;;;3.00;3.00;;;;;19.63;56.67;99391.81;111273;1270;19670;-75
2023/01/30 08:24:13;;;;;;;;;1.00;1.00;;;;;19.62;56.50;99385.73;111457;1263;18201;-75
2023/01/30 08:26:41;;;;;;;;;1.00;1.00;;;;;19.61;56.72;99386.27;111274;1270;20171;-75
2023/01/30 08:29:08;;;;;;;;;3.00;3.00;;;;;19.59;56.56;99378.45;111431;1255;19383;-75
2023/01/30 08:31:35;;;;;;;;;6.00;3.00;;;;;19.59;56.49;99372.69;111292;1270;19595;-75
2023/01/30 08:34:03;;;;;;;;;3.50;3.00;;;;;19.59;56.67;99373.60;111463;1255;18657;-75
2023/01/30 08:36:31;;;;;;;;;3.00;3.00;;;;;19.59;56.42;99366.02;111278;1270;19525;-77
2023/01/30 08:38:59;;;;;;;;;3.00;1.00;;;;;19.60;56.31;99367.83;111373;1262;18199;-74
2023/01/30 08:41:27;;;;;;;;;3.00;1.00;;;;;19.61;56.49;99366.23;111173;1270;20134;-75
2023/01/30 08:43:54;;;;;;;;;3.00;3.00;;;;;19.60;56.38;99364.11;111335;1263;19516;-74
2023/01/30 08:46:22;;;;;;;;;3.00;3.00;;;;;19.58;56.36;99369.43;111127;1270;19541;-74
2023/01/30 08:48:49;;;;;;;;;3.00;3.00;;;;;19.56;56.52;99358.55;111410;1262;19111;-74
2023/01/30 08:51:17;;;;;;;;;3.00;3.00;;;;;19.57;56.45;99369.53;111091;1270;19714;-75
2023/01/30 08:53:44;;;;;;;;;3.00;3.00;;;;;19.57;56.32;99358.33;111338;1270;20976;-74
2023/01/30 08:56:12;;;;;;;;;4.00;3.00;;;;;19.56;56.41;99367.11;111138;1270;18714;-73
2023/01/30 08:58:39;;;;;;;;;4.00;4.00;;;;;19.56;56.48;99369.66;111317;1256;19373;-74
2023/01/30 09:01:07;;;;;;;;;3.50;3.00;;;;;19.56;56.31;99368.87;111098;1270;18278;-75
2023/01/30 09:03:34;;;;;;;;;3.50;3.50;;;;;19.57;56.33;99360.30;111360;1255;20579;-75
2023/01/30 09:06:02;;;;;;;;;3.00;3.00;;;;;19.57;56.41;99349.91;111077;1263;20011;-75
2023/01/30 09:08:29;;;;;;;;;2.00;2.00;;;;;19.55;56.25;99354.69;111364;1270;18391;-74
2023/01/30 09:10:56;;;;;;;;;3.00;3.00;;;;;19.56;56.31;99351.02;111122;1270;18980;-74
2023/01/30 09:13:24;;;;;;;;;3.00;3.00;;;;;19.56;56.43;99350.98;111326;1270;19334;-74
2023/01/30 09:15:52;;;;;;;;;3.00;3.00;;;;;19.55;56.30;99348.20;111140;1270;19727;-74
2023/01/30 09:18:19;;;;;;;;;4.00;4.00;;;;;19.57;56.59;99345.95;111326;1270;18628;-74
2023/01/30 09:20:46;;;;;;;;;3.50;3.00;;;;;19.62;56.37;99347.65;111119;1255;20914;-75
2023/01/30 09:23:14;;;;;;;;;3.50;3.00;;;;;19.67;56.27;99348.63;111314;1255;18517;-76
2023/01/30 09:25:41;;;;;;;;;4.00;3.00;;;;;19.66;56.46;99345.32;111127;1270;20280;-73
2023/01/30 09:28:09;;;;;;;;;4.00;4.00;;;;;19.67;56.62;99345.52;111336;1270;19365;-76
2023/01/30 09:30:36;;;;;;;;;5.00;4.00;;;;;19.68;56.61;99348.71;111103;1263;18412;-75
2023/01/30 09:33:04;;;;;;;;;3.00;3.00;;;;;19.69;56.43;99347.81;111344;1263;18841;-75
2023/01/30 09:35:31;;;;;;;;;4.00;3.00;;;;;19.69;56.59;99351.45;111139;1270;19377;-76
2023/01/30 09:38:00;;;;;;;;;4.00;3.00;;;;;19.69;56.93;99345.76;111291;1270;19384;-76
2023/01/30 09:40:27;;;;;;;;;4.00;4.00;;;;;19.68;56.89;99341.02;111446;1270;19944;-76
2023/01/30 09:42:55;;;;;;;;;4.00;4.00;;;;;19.66;56.96;99332.95;111410;1270;20512;-75
2023/01/30 09:45:22;;;;;;;;;3.00;3.00;;;;;19.63;56.98;99327.08;111290;1270;20792;-75
2023/01/30 09:47:50;;;;;;;;;4.00;3.00;;;;;19.61;56.89;99322.05;111406;1270;18591;-75
2023/01/30 09:50:17;;;;;;;;;3.00;3.00;;;;;19.60;57.00;99312.85;111279;1270;21207;-75
2023/01/30 09:52:45;;;;;;;;;3.00;3.00;;;;;19.59;56.82;99315.98;111403;1270;18721;-76
2023/01/30 09:55:12;;;;;;;;;4.00;3.33;;;;;19.60;56.94;99304.86;111158;1270;20658;-75
2023/01/30 09:57:39;;;;;;;;;3.50;3.50;;;;;19.58;56.83;99304.85;111431;1270;19553;-76
2023/01/30 10:00:08;;;;;;;;;3.00;3.00;;;;;19.57;56.85;99291.66;111108;1270;20853;-75
2023/01/30 10:02:36;;;;;;;;;2.00;2.00;;;;;19.56;56.84;99294.08;111252;1270;19015;-76
2023/01/30 10:05:03;;;;;;;;;3.00;3.00;;;;;19.56;56.90;99300.27;111360;1270;20785;-76
2023/01/30 10:07:31;;;;;;;;;4.00;3.00;;;;;19.56;56.78;99295.52;111167;1256;19890;-75
2023/01/30 10:09:58;;;;;;;;;4.00;3.00;;;;;19.56;56.72;99296.59;111394;1270;18489;-76
2023/01/30 10:12:26;;;;;;;;;3.00;3.00;;;;;19.55;56.70;99297.11;111244;1263;19358;-76
2023/01/30 10:14:53;;;;;;;;;1.00;1.00;;;;;19.55;56.96;99297.28;111404;1270;18200;-76
2023/01/30 10:17:21;;;;;;;;;3.00;3.00;;;;;19.53;56.85;99295.73;111280;1270;18950;-76
2023/01/30 10:19:48;;;;;;;;;3.00;3.00;;;;;19.53;56.82;99295.11;111431;1270;19779;-76
2023/01/30 10:22:16;;;;;;;;;1.00;1.00;;;;;19.54;56.56;99292.61;111266;1270;18860;-76
2023/01/30 10:24:43;;;;;;;;;3.00;3.00;;;;;19.53;56.73;99287.96;111532;1270;18616;-76
2023/01/30 10:27:11;;;;;;;;;3.00;3.00;;;;;19.52;56.65;99287.00;111304;1270;19704;-75
2023/01/30 10:29:38;;;;;;;;;3.50;3.50;;;;;19.53;56.55;99287.30;111429;1255;18383;-76
2023/01/30 10:32:07;;;;;;;;;3.00;3.00;;;;;19.52;56.48;99280.36;111236;1270;18969;-76
2023/01/30 10:34:34;;;;;;;;;1.00;1.00;;;;;19.53;56.46;99277.09;111405;1262;19377;-76
2023/01/30 10:37:01;;;;;;;;;1.00;1.00;;;;;19.53;56.44;99269.57;111163;1270;18181;-76
2023/01/30 10:39:29;;;;;;;;;1.00;1.00;;;;;19.51;56.52;99266.68;111304;1256;18645;-76
2023/01/30 10:41:56;;;;;;;;;3.00;3.00;;;;;19.52;56.64;99263.96;111171;1255;21012;-76
2023/01/30 10:44:24;;;;;;;;;3.00;1.00;;;;;19.52;56.59;99266.52;111334;1263;18232;-76
2023/01/30 10:46:51;;;;;;;;;3.00;3.00;;;;;19.52;56.34;99267.10;111129;1263;18825;-76
2023/01/30 10:49:19;;;;;;;;;3.00;1.00;;;;;19.51;56.65;99267.55;111317;1270;20994;-76
2023/01/30 10:51:46;;;;;;;;;3.00;3.00;;;;;19.52;56.41;99259.08;111198;1270;18842;-76
2023/01/30 10:54:14;;;;;;;;;3.00;3.00;;;;;19.51;56.43;99257.98;111312;1270;18828;-75
2023/01/30 10:56:41;;;;;;;;;2.00;2.00;;;;;19.51;56.44;99253.30;111184;1270;20656;-75
2023/01/30 10:59:09;;;;;;;;;1.00;1.00;;;;;19.51;56.58;99246.39;111342;1270;18614;-77
2023/01/30 11:01:36;;;;;;;;;4.00;3.00;;;;;19.55;56.48;99246.40;111146;1270;21270;-75
2023/01/30 11:04:04;;;;;;;;;2.00;2.00;;;;;19.55;56.44;99243.69;111325;1270;19795;-76
2023/01/30 11:06:31;;;;;;;;;2.33;2.33;;;;;19.54;56.13;99243.11;111167;1270;19827;-76
2023/01/30 11:08:59;;;;;;;;;1.00;1.00;;;;;19.53;56.25;99236.75;111303;1270;19990;-76
2023/01/30 11:11:26;;;;;;;;;1.00;1.00;;;;;19.51;56.34;99233.15;111167;1270;19562;-76
2023/01/30 11:13:54;;;;;;;;;3.00;3.00;;;;;19.51;56.54;99228.59;111326;1270;19502;-77
2023/01/30 11:16:21;;;;;;;;;3.00;3.00;;;;;19.51;56.40;99225.16;111136;1270;20155;-76
2023/01/30 11:18:49;;;;;;;;;3.00;3.00;;;;;19.54;56.42;99229.15;111332;1256;19608;-76
2023/01/30 11:21:16;;;;;;;;;3.00;3.00;;;;;19.53;56.51;99229.42;111202;1270;19822;-76
2023/01/30 11:23:44;;;;;;;;;1.00;1.00;;;;;19.52;56.33;99231.39;111338;1270;20322;-75
2023/01/30 11:26:11;;;;;;;;;3.00;1.00;;;;;19.54;56.35;99224.67;111194;1255;20705;-78
2023/01/30 11:28:38;;;;;;;;;3.00;3.00;;;;;19.57;56.53;99218.38;111357;1270;20617;-76
2023/01/30 11:31:07;;;;;;;;;1.00;1.00;;;;;19.59;56.89;99209.45;111248;1270;19374;-75